Time;durP1;ratioP1;P1;durP2;ratioP2;P2;SDS_P1;SDS_P2;PMS_P1;PMS_P2;Temp;Humidity;BMP_temperature;BMP_pressure;BME280_temperature;BME280_humidity;BME280_pressure;Samples;Min_cycle;Max_cycle;Signal;HPM_P1;HPM_P2
2023/09/04 00:00:10;;;;;;;5.28;4.60;;;16.90;99.90;;;;;;5071854;28;20103;-46
2023/09/04 00:02:56;;;;;;;8.85;4.78;;;16.80;99.90;;;;;;5073818;28;20396;-46
2023/09/04 00:05:42;;;;;;;6.93;4.90;;;16.80;99.90;;;;;;5081909;28;20464;-48
2023/09/04 00:08:28;;;;;;;6.82;4.97;;;16.70;99.90;;;;;;5091635;28;20373;-48
2023/09/04 00:11:14;;;;;;;6.60;4.97;;;16.70;99.90;;;;;;5082814;28;20024;-54
2023/09/04 00:14:00;;;;;;;5.60;4.93;;;16.80;99.90;;;;;;5074898;28;20490;-53
2023/09/04 00:16:45;;;;;;;4.95;4.10;;;16.80;99.90;;;;;;5091047;28;20658;-50
2023/09/04 00:19:33;;;;;;;6.05;4.70;;;16.70;99.90;;;;;;5091778;28;20505;-47
2023/09/04 00:22:19;;;;;;;6.95;4.60;;;16.80;99.90;;;;;;5072172;28;20037;-49
2023/09/04 00:25:05;;;;;;;7.30;4.40;;;16.80;99.90;;;;;;5072352;28;20032;-53
2023/09/04 00:27:53;;;;;;;5.85;4.10;;;16.70;99.90;;;;;;5072450;28;20577;-48
2023/09/04 00:30:39;;;;;;;5.85;4.60;;;16.70;99.90;;;;;;5071904;28;20037;-48
2023/09/04 00:33:25;;;;;;;6.45;4.53;;;16.60;99.90;;;;;;5072425;28;20021;-51
2023/09/04 00:36:11;;;;;;;7.63;4.60;;;16.60;99.90;;;;;;5081102;28;20048;-49
2023/09/04 00:38:57;;;;;;;6.68;4.75;;;16.60;99.90;;;;;;5090863;28;20047;-48
2023/09/04 00:41:43;;;;;;;5.75;4.30;;;16.60;99.90;;;;;;5088279;28;20097;-52
2023/09/04 00:44:29;;;;;;;5.22;4.45;;;16.50;99.90;;;;;;5088696;28;20403;-52
2023/09/04 00:47:17;;;;;;;5.90;4.78;;;16.60;99.90;;;;;;5070105;28;20452;-45
2023/09/04 00:50:03;;;;;;;5.78;4.30;;;16.60;99.90;;;;;;5058351;28;20033;-51
2023/09/04 00:52:53;;;;;;;6.05;4.68;;;16.50;99.90;;;;;;5072581;28;20571;-53
2023/09/04 00:55:39;;;;;;;8.55;4.78;;;16.60;99.90;;;;;;5072610;28;20098;-48
2023/09/04 00:58:25;;;;;;;6.50;4.72;;;16.60;99.90;;;;;;5072773;28;20031;-51
2023/09/04 01:01:11;;;;;;;5.18;4.68;;;16.60;99.90;;;;;;5071451;28;20025;-52
2023/09/04 01:03:57;;;;;;;6.30;4.55;;;16.60;99.90;;;;;;5074196;28;20123;-54
2023/09/04 01:06:43;;;;;;;5.93;4.53;;;16.60;99.90;;;;;;5081009;28;20114;-52
2023/09/04 01:09:29;;;;;;;5.63;4.75;;;16.60;99.90;;;;;;5071965;28;20112;-50
2023/09/04 01:12:24;;;;;;;5.45;4.60;;;16.60;99.90;;;;;;5071227;28;20138;-51
2023/09/04 01:15:10;;;;;;;5.07;4.57;;;16.60;99.90;;;;;;5081448;28;20123;-52
2023/09/04 01:17:58;;;;;;;5.22;4.60;;;16.40;99.90;;;;;;5087552;28;20045;-53
2023/09/04 01:20:44;;;;;;;6.82;4.75;;;16.40;99.90;;;;;;5071892;28;20037;-48
2023/09/04 01:23:30;;;;;;;8.05;5.30;;;16.50;99.90;;;;;;5070644;28;20075;-50
2023/09/04 01:26:30;;;;;;;6.93;5.05;;;16.40;99.90;;;;;;5071114;28;20028;-50
2023/09/04 01:29:43;;;;;;;6.45;4.90;;;16.40;99.90;;;;;;5071218;28;20416;-44
2023/09/04 01:32:36;;;;;;;6.75;5.00;;;16.40;99.90;;;;;;5082415;28;20389;-49
2023/09/04 01:35:23;;;;;;;5.80;4.72;;;16.30;99.90;;;;;;5086967;28;20020;-51
2023/09/04 01:38:09;;;;;;;6.57;4.30;;;16.30;99.90;;;;;;5083582;28;20074;-48
2023/09/04 01:40:55;;;;;;;7.10;5.10;;;16.30;99.90;;;;;;5088435;28;20024;-46
2023/09/04 01:43:41;;;;;;;8.40;4.97;;;16.20;99.90;;;;;;5090844;28;20036;-48
2023/09/04 01:46:27;;;;;;;6.70;4.80;;;16.20;99.90;;;;;;5091884;28;20039;-51
2023/09/04 01:49:13;;;;;;;6.25;5.05;;;16.20;99.90;;;;;;5094115;28;20029;-47
2023/09/04 01:52:00;;;;;;;8.38;5.03;;;16.20;99.90;;;;;;5092318;28;20055;-51
2023/09/04 01:54:46;;;;;;;6.60;4.75;;;16.20;99.90;;;;;;5094572;28;20110;-45
2023/09/04 01:57:31;;;;;;;5.63;4.90;;;16.20;99.90;;;;;;5093809;28;20093;-47
2023/09/04 02:00:17;;;;;;;5.38;4.88;;;16.20;99.90;;;;;;5080280;28;20463;-48
2023/09/04 02:03:03;;;;;;;6.40;4.88;;;16.20;99.90;;;;;;5074523;28;20020;-48
2023/09/04 02:05:49;;;;;;;6.97;4.65;;;16.20;99.90;;;;;;5074681;28;20040;-48
2023/09/04 02:08:36;;;;;;;5.63;4.68;;;16.20;99.90;;;;;;5069161;28;20024;-49
2023/09/04 02:11:22;;;;;;;6.88;5.00;;;16.20;99.90;;;;;;5095021;28;20449;-53
2023/09/04 02:14:08;;;;;;;5.38;4.82;;;16.20;99.90;;;;;;5092447;28;20020;-52
2023/09/04 02:16:54;;;;;;;7.70;4.85;;;16.20;99.90;;;;;;5077091;28;20064;-51
2023/09/04 02:19:40;;;;;;;7.30;5.15;;;16.10;99.90;;;;;;5080648;28;20032;-52
2023/09/04 02:22:25;;;;;;;8.13;5.50;;;16.10;99.90;;;;;;5083945;28;20031;-50
2023/09/04 02:25:11;;;;;;;6.60;5.05;;;16.10;99.90;;;;;;5070081;28;20170;-50
2023/09/04 02:27:57;;;;;;;5.95;5.35;;;16.00;99.90;;;;;;5069937;28;20031;-47
2023/09/04 02:30:43;;;;;;;7.15;5.57;;;16.00;99.90;;;;;;5083686;28;20428;-49
2023/09/04 02:33:29;;;;;;;6.07;5.38;;;16.00;99.90;;;;;;5084440;28;20104;-47
2023/09/04 02:36:15;;;;;;;6.47;5.60;;;16.00;99.90;;;;;;5085432;28;20020;-49
2023/09/04 02:39:01;;;;;;;10.73;5.28;;;16.00;99.90;;;;;;5088348;28;20028;-47
2023/09/04 02:41:47;;;;;;;6.13;5.20;;;16.00;99.90;;;;;;5092968;28;20032;-49
2023/09/04 02:44:33;;;;;;;5.90;5.30;;;16.00;99.90;;;;;;5072706;28;20032;-47
2023/09/04 02:47:19;;;;;;;6.78;5.10;;;16.00;99.90;;;;;;5085688;28;20100;-47
2023/09/04 02:50:06;;;;;;;6.78;5.25;;;15.90;99.90;;;;;;5076366;28;20033;-50
2023/09/04 02:52:52;;;;;;;6.70;5.13;;;16.00;99.90;;;;;;5073229;28;20514;-44
2023/09/04 02:55:38;;;;;;;6.43;4.90;;;15.90;99.90;;;;;;5076617;28;20087;-47
2023/09/04 02:58:24;;;;;;;8.00;4.70;;;15.80;99.90;;;;;;5076435;28;20063;-51
2023/09/04 03:01:10;;;;;;;7.00;4.90;;;15.80;99.90;;;;;;5061525;28;20032;-46
2023/09/04 03:03:56;;;;;;;7.10;4.82;;;15.80;99.90;;;;;;5073829;28;20380;-54
2023/09/04 03:06:42;;;;;;;5.85;5.20;;;15.80;99.90;;;;;;5073791;28;20056;-47
2023/09/04 03:09:28;;;;;;;7.95;5.53;;;15.80;99.90;;;;;;5073347;28;20037;-49
2023/09/04 03:12:13;;;;;;;5.88;5.25;;;15.80;99.90;;;;;;5060174;28;20017;-47
2023/09/04 03:15:06;;;;;;;5.95;5.28;;;15.80;99.90;;;;;;5086665;28;20131;-50
2023/09/04 03:17:52;;;;;;;7.20;5.85;;;15.80;99.90;;;;;;5073317;28;20031;-50
2023/09/04 03:20:38;;;;;;;5.78;4.93;;;15.80;99.90;;;;;;5073390;28;20032;-49
2023/09/04 03:23:24;;;;;;;6.32;5.13;;;15.80;99.90;;;;;;5074012;28;20112;-48
2023/09/04 03:26:10;;;;;;;7.20;5.43;;;15.70;99.90;;;;;;5074228;28;20040;-50
2023/09/04 03:28:56;;;;;;;7.30;5.38;;;15.70;99.90;;;;;;5073112;28;20033;-50
2023/09/04 03:31:43;;;;;;;5.75;5.13;;;15.60;99.90;;;;;;5075095;28;20516;-49
2023/09/04 03:34:29;;;;;;;6.03;5.40;;;15.60;99.90;;;;;;5094295;27;20064;-50
2023/09/04 03:37:15;;;;;;;8.88;5.63;;;15.60;99.90;;;;;;5092069;28;20034;-46
2023/09/04 03:40:25;;;;;;;6.15;5.35;;;15.40;99.90;;;;;;5090079;28;20040;-49
2023/09/04 03:43:11;;;;;;;7.18;6.10;;;15.50;99.90;;;;;;5073630;28;20028;-53
2023/09/04 03:45:57;;;;;;;6.20;5.60;;;15.50;99.90;;;;;;5073192;28;20099;-48
2023/09/04 03:48:43;;;;;;;7.38;5.68;;;15.50;99.90;;;;;;5077310;28;20107;-52
2023/09/04 03:51:28;;;;;;;6.20;5.45;;;15.40;99.90;;;;;;5091615;28;20024;-49
2023/09/04 03:54:14;;;;;;;6.32;5.60;;;15.30;99.90;;;;;;5091293;28;20016;-50
2023/09/04 03:57:00;;;;;;;8.57;5.82;;;15.30;99.90;;;;;;5073322;28;20021;-50
2023/09/04 03:59:46;;;;;;;7.38;5.35;;;15.40;99.90;;;;;;5072263;28;20497;-47
2023/09/04 04:02:32;;;;;;;7.03;5.32;;;15.40;99.90;;;;;;5072013;28;20556;-47
2023/09/04 04:05:19;;;;;;;6.25;5.45;;;15.40;99.90;;;;;;5072995;28;20496;-49
2023/09/04 04:08:05;;;;;;;7.30;5.93;;;15.40;99.90;;;;;;5070999;28;20415;-48
2023/09/04 04:10:51;;;;;;;6.90;5.60;;;15.30;99.90;;;;;;5072746;28;20107;-51
2023/09/04 04:13:37;;;;;;;7.40;5.82;;;15.40;99.90;;;;;;5089553;28;20162;-52
2023/09/04 04:16:23;;;;;;;8.05;5.80;;;15.40;99.90;;;;;;5091060;28;20454;-53
2023/09/04 04:19:09;;;;;;;7.22;5.63;;;15.30;99.90;;;;;;5090853;28;21555;-55
2023/09/04 04:21:55;;;;;;;6.72;5.57;;;15.40;99.90;;;;;;5070842;28;20428;-53
2023/09/04 04:24:41;;;;;;;6.78;5.35;;;15.40;99.90;;;;;;5071581;28;20055;-51
2023/09/04 04:27:27;;;;;;;8.57;5.78;;;15.40;99.90;;;;;;5056074;28;20489;-55
2023/09/04 04:30:13;;;;;;;7.28;5.63;;;15.40;99.90;;;;;;5085525;28;20032;-50
2023/09/04 04:32:59;;;;;;;6.90;5.40;;;15.40;99.90;;;;;;5091926;28;20028;-52
2023/09/04 04:35:45;;;;;;;7.05;5.68;;;15.40;99.90;;;;;;5092431;28;20032;-51
2023/09/04 04:38:31;;;;;;;6.97;4.95;;;15.40;99.90;;;;;;5091779;28;20084;-53
2023/09/04 04:41:17;;;;;;;7.13;5.35;;;15.40;99.90;;;;;;5087321;28;20059;-53
2023/09/04 04:44:03;;;;;;;11.50;5.38;;;15.50;99.90;;;;;;5076239;28;20085;-53
2023/09/04 04:46:49;;;;;;;5.75;5.15;;;15.40;99.90;;;;;;5091596;28;20161;-47
2023/09/04 04:49:35;;;;;;;7.03;5.38;;;15.50;99.90;;;;;;5071927;28;20504;-53
2023/09/04 04:52:21;;;;;;;6.53;5.38;;;15.50;99.90;;;;;;5074103;28;20511;-49
2023/09/04 04:55:07;;;;;;;7.53;6.15;;;15.50;99.90;;;;;;5071085;28;20032;-48
2023/09/04 04:57:53;;;;;;;7.32;6.30;;;15.50;99.90;;;;;;5071239;28;20039;-52
2023/09/04 05:00:39;;;;;;;8.55;6.28;;;15.50;99.90;;;;;;5087118;28;20177;-52
2023/09/04 05:03:25;;;;;;;9.38;5.97;;;15.50;99.90;;;;;;5090949;28;20031;-51
2023/09/04 05:06:11;;;;;;;7.60;6.05;;;15.50;99.90;;;;;;5091284;28;20036;-50
2023/09/04 05:08:57;;;;;;;6.18;5.13;;;15.50;99.90;;;;;;5058068;28;20052;-48
2023/09/04 05:11:43;;;;;;;7.28;5.60;;;15.50;99.90;;;;;;5071145;28;20029;-52
2023/09/04 05:14:29;;;;;;;6.90;6.20;;;15.50;99.90;;;;;;5075486;28;20107;-53
2023/09/04 05:17:15;;;;;;;6.15;5.53;;;15.60;99.90;;;;;;5088428;28;20388;-51
2023/09/04 05:20:03;;;;;;;6.28;5.68;;;15.60;99.90;;;;;;5089097;28;20456;-48
2023/09/04 05:22:49;;;;;;;6.40;5.68;;;15.50;99.90;;;;;;5061234;28;20442;-53
2023/09/04 05:25:35;;;;;;;8.07;6.22;;;15.60;99.90;;;;;;5076311;28;20538;-52
2023/09/04 05:28:21;;;;;;;6.30;5.70;;;15.60;99.90;;;;;;5089617;28;20506;-49
2023/09/04 05:31:07;;;;;;;9.27;7.50;;;15.60;99.90;;;;;;5089370;28;20082;-52
2023/09/04 05:33:53;;;;;;;12.82;7.32;;;15.60;99.90;;;;;;5091329;28;20028;-48
2023/09/04 05:36:39;;;;;;;7.95;7.15;;;15.60;99.90;;;;;;5075945;28;20395;-45
2023/09/04 05:39:25;;;;;;;9.70;6.45;;;15.60;99.90;;;;;;5091350;28;20058;-49
2023/09/04 05:42:11;;;;;;;8.13;6.63;;;15.60;99.90;;;;;;5087182;28;20020;-48
2023/09/04 05:44:56;;;;;;;8.25;6.88;;;15.70;99.90;;;;;;5071724;28;20024;-46
2023/09/04 05:47:43;;;;;;;8.40;6.57;;;15.70;99.90;;;;;;5089656;28;20051;-47
2023/09/04 05:50:29;;;;;;;11.70;7.57;;;15.70;99.90;;;;;;5076464;28;20023;-46
2023/09/04 05:53:15;;;;;;;11.40;8.20;;;15.70;99.90;;;;;;5082475;28;20105;-47
2023/09/04 05:56:03;;;;;;;10.70;8.40;;;15.60;99.90;;;;;;5080008;28;20033;-47
2023/09/04 05:58:50;;;;;;;31.55;20.52;;;15.70;99.90;;;;;;5071059;28;20033;-48
2023/09/04 06:01:36;;;;;;;20.00;13.68;;;15.80;99.90;;;;;;5070684;28;20029;-50
2023/09/04 06:04:22;;;;;;;14.50;9.93;;;15.90;99.90;;;;;;5073506;28;20047;-55
2023/09/04 06:07:10;;;;;;;10.75;7.93;;;15.90;99.90;;;;;;5091621;28;20055;-51
2023/09/04 06:09:56;;;;;;;13.43;10.23;;;16.00;99.90;;;;;;5092211;28;20070;-54
2023/09/04 06:12:41;;;;;;;10.27;8.95;;;16.10;99.90;;;;;;5060130;28;20025;-52
2023/09/04 06:15:27;;;;;;;9.30;7.93;;;16.10;99.90;;;;;;5070800;28;20619;-51
2023/09/04 06:18:13;;;;;;;10.65;7.50;;;16.10;99.90;;;;;;5086976;28;20032;-53
2023/09/04 06:20:59;;;;;;;13.13;7.28;;;16.00;99.90;;;;;;5071686;28;20032;-52
2023/09/04 06:23:45;;;;;;;11.13;6.95;;;16.20;99.90;;;;;;5073557;28;20024;-52
2023/09/04 06:26:34;;;;;;;17.85;9.02;;;16.30;99.90;;;;;;5082579;28;20074;-54
2023/09/04 06:29:20;;;;;;;11.95;8.15;;;16.30;99.90;;;;;;5078977;28;20454;-53
2023/09/04 06:32:06;;;;;;;9.40;7.80;;;16.40;99.90;;;;;;5087431;28;20025;-48
2023/09/04 06:34:53;;;;;;;9.00;7.97;;;16.50;99.90;;;;;;5089170;28;20035;-48
2023/09/04 06:37:40;;;;;;;10.02;7.47;;;16.60;99.90;;;;;;5087059;28;20031;-45
2023/09/04 06:40:26;;;;;;;8.80;7.50;;;16.70;99.90;;;;;;5093144;28;20020;-52
2023/09/04 06:43:12;;;;;;;14.43;8.65;;;16.90;99.90;;;;;;5094390;28;20094;-52
2023/09/04 06:45:58;;;;;;;9.13;8.20;;;16.90;99.90;;;;;;5093567;28;20115;-50
2023/09/04 06:48:44;;;;;;;9.73;8.38;;;17.00;99.90;;;;;;5093092;28;20028;-48
2023/09/04 06:51:31;;;;;;;12.13;8.68;;;17.10;99.90;;;;;;5094211;28;20032;-54
2023/09/04 06:54:17;;;;;;;13.48;9.95;;;17.20;99.90;;;;;;5072686;28;20489;-51
2023/09/04 06:57:04;;;;;;;11.57;8.10;;;17.30;99.90;;;;;;5072828;28;20485;-46
2023/09/04 06:59:50;;;;;;;13.77;9.05;;;17.40;99.90;;;;;;5072441;28;20547;-47
2023/09/04 07:02:36;;;;;;;10.07;7.35;;;17.50;99.90;;;;;;5059021;28;20050;-47
2023/09/04 07:05:23;;;;;;;10.48;7.47;;;17.50;99.90;;;;;;5072053;28;20027;-54
2023/09/04 07:08:09;;;;;;;10.00;7.78;;;17.70;99.90;;;;;;5073441;28;20025;-45
2023/09/04 07:10:55;;;;;;;8.20;7.40;;;17.70;99.90;;;;;;5091134;28;20093;-47
2023/09/04 07:13:41;;;;;;;11.10;8.43;;;17.80;99.90;;;;;;5074817;28;20107;-49
2023/09/04 07:16:27;;;;;;;8.82;7.22;;;17.80;99.90;;;;;;5073874;28;20466;-48
2023/09/04 07:19:13;;;;;;;19.35;15.68;;;17.90;99.90;;;;;;5093642;28;20036;-51
2023/09/04 07:21:59;;;;;;;22.92;18.25;;;18.00;99.90;;;;;;5090210;28;20523;-50
2023/09/04 07:24:45;;;;;;;10.60;8.90;;;18.10;99.90;;;;;;5092540;28;20647;-52
2023/09/04 07:27:31;;;;;;;10.65;8.02;;;18.20;99.90;;;;;;5093020;28;20036;-49
2023/09/04 07:30:17;;;;;;;9.75;7.53;;;18.20;99.90;;;;;;5080280;28;20066;-53
2023/09/04 07:33:03;;;;;;;14.40;9.27;;;18.30;99.90;;;;;;5091993;28;20020;-54
2023/09/04 07:35:55;;;;;;;9.98;7.65;;;18.30;99.90;;;;;;5070745;28;20137;-55
2023/09/04 07:38:42;;;;;;;9.93;8.13;;;18.30;99.90;;;;;;5071238;28;20032;-53
2023/09/04 07:41:29;;;;;;;10.02;8.45;;;18.30;99.90;;;;;;5091331;28;20032;-50
2023/09/04 07:44:15;;;;;;;8.35;7.10;;;18.40;99.90;;;;;;5091836;28;20028;-49
2023/09/04 07:47:02;;;;;;;8.45;6.90;;;18.50;99.90;;;;;;5089220;28;20035;-49
2023/09/04 07:49:48;;;;;;;10.07;7.40;;;18.60;99.90;;;;;;5076600;28;20124;-50
2023/09/04 07:52:34;;;;;;;13.02;8.60;;;18.60;99.90;;;;;;5074764;28;20099;-48
2023/09/04 07:55:20;;;;;;;8.45;7.28;;;18.50;99.90;;;;;;5092204;28;20036;-48
2023/09/04 07:58:07;;;;;;;9.20;7.53;;;18.50;99.90;;;;;;5089674;28;20042;-49
2023/09/04 08:00:53;;;;;;;13.63;7.80;;;18.50;99.90;;;;;;5090911;28;20032;-50
2023/09/04 08:03:39;;;;;;;8.32;7.00;;;18.70;99.90;;;;;;5091545;28;20123;-51
2023/09/04 08:06:25;;;;;;;9.88;6.57;;;18.70;99.90;;;;;;5087535;28;20028;-51
2023/09/04 08:09:11;;;;;;;10.40;6.72;;;18.90;99.90;;;;;;5093014;28;20017;-53
2023/09/04 08:11:58;;;;;;;11.00;6.47;;;19.00;99.90;;;;;;5084335;28;20096;-49
2023/09/04 08:14:46;;;;;;;11.30;6.70;;;19.10;99.90;;;;;;5090743;28;20024;-49
2023/09/04 08:17:32;;;;;;;10.82;6.93;;;19.30;99.90;;;;;;5089235;28;20020;-46
2023/09/04 08:20:17;;;;;;;9.52;6.95;;;19.30;99.90;;;;;;5090723;28;20029;-47
2023/09/04 08:23:06;;;;;;;14.57;7.28;;;19.30;99.90;;;;;;5086378;28;20111;-50
2023/09/04 08:25:59;;;;;;;9.95;7.25;;;19.20;99.90;;;;;;5081116;28;20024;-52
2023/09/04 08:28:45;;;;;;;8.55;7.38;;;19.40;99.90;;;;;;5077283;28;20028;-50
2023/09/04 08:31:31;;;;;;;9.10;6.97;;;19.50;99.90;;;;;;5070426;28;20100;-49
2023/09/04 08:34:17;;;;;;;10.18;7.35;;;19.50;99.90;;;;;;5081868;28;20038;-50
2023/09/04 08:37:03;;;;;;;11.90;6.60;;;19.50;99.90;;;;;;5085971;28;20042;-53
2023/09/04 08:39:49;;;;;;;8.00;5.88;;;19.50;99.90;;;;;;5084978;28;20087;-49
2023/09/04 08:42:38;;;;;;;12.15;6.50;;;19.50;99.90;;;;;;5073384;28;20116;-48
2023/09/04 08:45:24;;;;;;;7.45;5.63;;;19.70;99.90;;;;;;5088131;28;20036;-51
2023/09/04 08:48:12;;;;;;;7.22;5.38;;;19.70;99.90;;;;;;5069599;28;20501;-53
2023/09/04 08:50:58;;;;;;;7.57;5.00;;;19.80;99.90;;;;;;5082219;28;20032;-52
2023/09/04 08:53:45;;;;;;;11.05;5.05;;;19.90;99.90;;;;;;5085431;28;20032;-51
2023/09/04 08:56:31;;;;;;;8.02;4.40;;;20.10;99.90;;;;;;5062950;28;20420;-55
2023/09/04 08:59:17;;;;;;;7.85;6.25;;;20.10;99.90;;;;;;5075803;28;20032;-50
2023/09/04 09:02:04;;;;;;;6.85;4.63;;;20.30;99.70;;;;;;5082634;28;20055;-48
2023/09/04 09:04:52;;;;;;;6.47;4.82;;;20.40;99.50;;;;;;5084543;28;20115;-51
2023/09/04 09:07:40;;;;;;;6.50;4.53;;;20.40;99.80;;;;;;5090014;28;20032;-47
2023/09/04 09:10:26;;;;;;;6.93;3.90;;;20.30;98.80;;;;;;5073616;28;20028;-54
2023/09/04 09:13:15;;;;;;;6.65;4.10;;;20.30;98.40;;;;;;5085123;28;20553;-48
2023/09/04 09:16:01;;;;;;;9.73;6.47;;;20.40;98.90;;;;;;5094605;28;20391;-47
2023/09/04 09:18:48;;;;;;;6.35;5.30;;;20.40;99.30;;;;;;5085896;28;20043;-52
2023/09/04 09:21:34;;;;;;;9.38;5.30;;;20.60;98.60;;;;;;5079293;28;20145;-50
2023/09/04 09:24:20;;;;;;;6.53;4.85;;;20.70;98.30;;;;;;5109709;28;20027;-50
2023/09/04 09:27:07;;;;;;;5.90;4.15;;;20.70;98.40;;;;;;5089847;28;20031;-51
2023/09/04 09:29:57;;;;;;;5.28;3.97;;;20.80;98.30;;;;;;5085521;28;20028;-50
2023/09/04 09:32:43;;;;;;;20.20;13.85;;;20.90;98.50;;;;;;5091426;28;20028;-52
2023/09/04 09:35:32;;;;;;;5.57;4.57;;;20.90;98.20;;;;;;5090401;28;20496;-48
2023/09/04 09:38:18;;;;;;;6.25;4.25;;;21.00;97.90;;;;;;5090345;28;20047;-49
2023/09/04 09:41:04;;;;;;;6.18;4.70;;;21.10;97.90;;;;;;5090417;28;20024;-51
2023/09/04 09:43:50;;;;;;;5.20;4.22;;;21.30;97.60;;;;;;5091446;28;20097;-51
2023/09/04 09:46:37;;;;;;;6.60;4.25;;;21.30;97.40;;;;;;5089890;28;20180;-49
2023/09/04 09:49:23;;;;;;;7.45;4.00;;;21.40;97.30;;;;;;5090431;28;20111;-50
2023/09/04 09:52:10;;;;;;;5.35;4.20;;;21.50;97.30;;;;;;5090129;28;20381;-48
2023/09/04 09:54:56;;;;;;;5.20;3.80;;;21.60;97.00;;;;;;5091210;28;20123;-49
2023/09/04 09:57:42;;;;;;;5.38;3.85;;;21.60;95.70;;;;;;5091535;28;20020;-52
2023/09/04 10:00:29;;;;;;;5.50;3.63;;;21.50;95.70;;;;;;5095122;28;20032;-50
2023/09/04 10:03:15;;;;;;;6.50;3.50;;;21.40;95.90;;;;;;5075032;28;20025;-46
2023/09/04 10:06:04;;;;;;;6.82;3.92;;;21.30;95.90;;;;;;5074791;28;20036;-48
2023/09/04 10:08:52;;;;;;;5.68;3.78;;;21.40;95.90;;;;;;5075608;28;20028;-49
2023/09/04 10:11:43;;;;;;;5.15;4.25;;;21.50;96.00;;;;;;5074867;28;20029;-53
2023/09/04 10:14:35;;;;;;;6.35;3.63;;;21.60;95.70;;;;;;5084667;28;20439;-48
2023/09/04 10:17:39;;;;;;;5.88;3.60;;;21.70;95.50;;;;;;5085270;28;20024;-53
2023/09/04 10:20:26;;;;;;;5.72;3.85;;;21.70;95.20;;;;;;5084873;28;20023;-54
2023/09/04 10:23:14;;;;;;;4.68;4.20;;;21.70;95.30;;;;;;5068322;28;20029;-49
2023/09/04 10:26:26;;;;;;;6.40;3.70;;;21.50;95.00;;;;;;5070398;28;20033;-49
2023/09/04 10:29:17;;;;;;;4.97;4.25;;;21.50;95.60;;;;;;5064424;28;20030;-53
2023/09/04 10:32:04;;;;;;;3.85;3.40;;;21.60;95.50;;;;;;5074225;28;20491;-49
2023/09/04 10:34:50;;;;;;;6.63;4.40;;;21.60;95.70;;;;;;5073563;28;20032;-49
2023/09/04 10:37:40;;;;;;;4.10;3.55;;;21.80;95.60;;;;;;5063407;28;20031;-53
2023/09/04 10:40:28;;;;;;;6.28;4.03;;;21.80;95.20;;;;;;5082045;28;20162;-49
2023/09/04 10:43:14;;;;;;;7.80;4.10;;;21.80;95.40;;;;;;5084949;28;20111;-49
2023/09/04 10:46:18;;;;;;;6.13;3.88;;;21.90;95.30;;;;;;5082990;28;20032;-48
2023/09/04 10:49:04;;;;;;;4.60;3.72;;;21.90;95.20;;;;;;5089873;28;20464;-49
2023/09/04 10:51:50;;;;;;;5.25;4.00;;;21.90;95.50;;;;;;5075548;28;20032;-48
2023/09/04 10:54:37;;;;;;;6.10;4.10;;;22.00;95.30;;;;;;5087735;28;20027;-51
2023/09/04 10:57:23;;;;;;;5.93;3.95;;;22.20;95.20;;;;;;5082362;28;20033;-53
2023/09/04 11:00:09;;;;;;;4.97;3.88;;;22.30;95.30;;;;;;5080576;28;20517;-54
2023/09/04 11:02:56;;;;;;;7.38;4.25;;;22.40;95.00;;;;;;5077645;28;20090;-51
2023/09/04 11:06:07;;;;;;;5.30;4.25;;;22.20;94.90;;;;;;5065530;28;20107;-48
2023/09/04 11:08:53;;;;;;;6.18;4.28;;;22.20;95.10;;;;;;5079120;28;20028;-49
2023/09/04 11:11:39;;;;;;;6.00;4.35;;;22.30;95.10;;;;;;5093802;28;20067;-51
2023/09/04 11:14:32;;;;;;;8.15;4.45;;;22.30;95.30;;;;;;5064489;28;20104;-48
2023/09/04 11:17:29;;;;;;;6.63;4.10;;;22.40;95.40;;;;;;5083103;28;20066;-49
2023/09/04 11:20:17;;;;;;;5.10;4.40;;;22.50;95.00;;;;;;5075308;28;20033;-53
2023/09/04 11:23:03;;;;;;;8.75;5.03;;;22.30;94.40;;;;;;5082851;28;20440;-51
2023/09/04 11:25:52;;;;;;;4.45;3.88;;;22.20;95.00;;;;;;5091867;28;20467;-49
2023/09/04 11:28:39;;;;;;;4.95;4.05;;;22.30;95.00;;;;;;5092662;28;20039;-50
2023/09/04 11:31:27;;;;;;;6.68;4.40;;;22.50;95.10;;;;;;5082952;27;20497;-48
2023/09/04 11:34:22;;;;;;;5.95;4.32;;;22.60;94.90;;;;;;5080477;28;20052;-52
2023/09/04 11:37:09;;;;;;;7.80;4.22;;;22.70;94.80;;;;;;5081027;28;20059;-52
2023/09/04 11:39:58;;;;;;;5.35;4.43;;;22.80;94.80;;;;;;5078089;28;20025;-51
2023/09/04 11:42:44;;;;;;;5.72;4.40;;;22.80;94.70;;;;;;5085733;28;20032;-48
2023/09/04 11:45:31;;;;;;;7.38;4.50;;;22.90;94.10;;;;;;5092531;28;20442;-46
2023/09/04 11:48:17;;;;;;;6.75;4.43;;;22.90;93.70;;;;;;5072885;28;20520;-47
2023/09/04 11:51:07;;;;;;;4.95;3.95;;;22.80;93.80;;;;;;5089768;28;20032;-52
2023/09/04 11:53:53;;;;;;;8.95;5.55;;;22.90;94.40;;;;;;5092716;28;20024;-54
2023/09/04 11:56:40;;;;;;;6.78;4.60;;;23.00;94.30;;;;;;5093033;28;20068;-50
2023/09/04 11:59:26;;;;;;;8.05;4.28;;;23.00;93.80;;;;;;5092786;28;20024;-49
2023/09/04 12:02:12;;;;;;;6.78;4.72;;;22.80;93.90;;;;;;5091505;28;20071;-50
2023/09/04 12:05:00;;;;;;;5.55;4.40;;;22.80;93.90;;;;;;5091167;28;20028;-54
2023/09/04 12:07:46;;;;;;;7.90;4.70;;;22.90;93.90;;;;;;5091192;28;20028;-48
2023/09/04 12:10:33;;;;;;;6.60;4.60;;;23.00;93.90;;;;;;5091021;28;20032;-48
2023/09/04 12:13:20;;;;;;;4.82;4.15;;;23.10;93.90;;;;;;5091255;28;20115;-49
2023/09/04 12:16:07;;;;;;;7.20;4.53;;;23.10;93.60;;;;;;5092365;28;20069;-51
2023/09/04 12:18:54;;;;;;;7.97;4.60;;;23.10;93.80;;;;;;5091734;28;20110;-52
2023/09/04 12:21:40;;;;;;;6.38;4.22;;;23.10;93.60;;;;;;5092211;28;20412;-52
2023/09/04 12:24:26;;;;;;;9.70;4.30;;;23.10;93.60;;;;;;5092160;28;20089;-53
2023/09/04 12:27:13;;;;;;;5.45;4.15;;;23.30;93.70;;;;;;5091327;28;20032;-52
2023/09/04 12:29:59;;;;;;;5.60;4.38;;;23.40;93.80;;;;;;5092210;28;20101;-54
2023/09/04 12:32:48;;;;;;;5.18;4.10;;;23.40;93.80;;;;;;5092011;28;20157;-50
2023/09/04 12:35:35;;;;;;;5.93;4.03;;;23.60;93.50;;;;;;5092196;28;20052;-52
2023/09/04 12:38:21;;;;;;;7.80;4.47;;;23.60;92.70;;;;;;5091015;28;20028;-50
2023/09/04 12:41:07;;;;;;;7.15;5.00;;;23.60;92.40;;;;;;5077543;28;20035;-50
2023/09/04 12:43:54;;;;;;;7.53;4.75;;;23.70;92.70;;;;;;5091902;28;20032;-50
2023/09/04 12:46:39;;;;;;;5.53;4.07;;;23.80;92.60;;;;;;5075464;28;20492;-52
2023/09/04 12:49:25;;;;;;;6.20;4.30;;;24.00;92.80;;;;;;5092071;28;20507;-48
2023/09/04 12:52:11;;;;;;;6.32;4.70;;;24.30;92.80;;;;;;5057258;28;20073;-51
2023/09/04 12:54:57;;;;;;;5.78;3.92;;;24.30;92.00;;;;;;5071512;28;20024;-50
2023/09/04 12:57:45;;;;;;;9.30;4.55;;;24.40;92.00;;;;;;5071223;28;20025;-50
2023/09/04 13:00:32;;;;;;;6.68;3.90;;;24.60;92.10;;;;;;5071644;28;20519;-49
2023/09/04 13:03:18;;;;;;;5.97;4.00;;;24.80;91.80;;;;;;5071089;28;20024;-50
2023/09/04 13:06:04;;;;;;;5.20;4.10;;;24.80;91.60;;;;;;5071563;28;20021;-48
2023/09/04 13:08:50;;;;;;;5.47;4.43;;;25.00;91.80;;;;;;5071678;28;20111;-50
2023/09/04 13:11:36;;;;;;;8.50;4.47;;;24.80;91.90;;;;;;5071413;28;20549;-54
2023/09/04 13:14:22;;;;;;;5.43;3.97;;;24.90;92.00;;;;;;5071154;28;20033;-52
2023/09/04 13:17:08;;;;;;;6.32;5.32;;;25.20;92.00;;;;;;5071171;28;20025;-48
2023/09/04 13:19:54;;;;;;;6.68;4.80;;;25.40;91.80;;;;;;5070483;28;20035;-53
2023/09/04 13:22:41;;;;;;;6.35;4.30;;;25.50;91.50;;;;;;5071258;28;20033;-48
2023/09/04 13:25:27;;;;;;;17.17;13.10;;;25.70;91.80;;;;;;5071172;28;20078;-48
2023/09/04 13:28:13;;;;;;;27.40;19.60;;;25.90;91.50;;;;;;5070104;28;20033;-50
2023/09/04 13:30:59;;;;;;;9.45;6.75;;;26.00;91.40;;;;;;5069549;28;20040;-50
2023/09/04 13:33:45;;;;;;;5.97;4.57;;;26.10;91.10;;;;;;5073722;28;20025;-51
2023/09/04 13:36:31;;;;;;;6.18;4.57;;;26.00;90.90;;;;;;5074975;28;20504;-52
2023/09/04 13:39:17;;;;;;;6.45;4.03;;;26.20;90.90;;;;;;5076400;28;20489;-51
2023/09/04 13:42:04;;;;;;;5.93;4.10;;;26.40;90.90;;;;;;5076499;28;20074;-50
2023/09/04 13:44:50;;;;;;;6.10;4.40;;;26.60;91.50;;;;;;5094768;28;20059;-50
2023/09/04 13:47:36;;;;;;;6.93;4.32;;;26.80;90.80;;;;;;5094015;28;20090;-46
2023/09/04 13:50:22;;;;;;;6.53;4.30;;;27.00;90.70;;;;;;5094241;28;20027;-52
2023/09/04 13:53:08;;;;;;;6.35;4.10;;;27.00;90.10;;;;;;5080428;28;20043;-48
2023/09/04 13:55:54;;;;;;;6.07;4.53;;;27.00;90.00;;;;;;5094176;28;20113;-47
2023/09/04 13:58:40;;;;;;;5.97;4.30;;;26.90;89.20;;;;;;5095295;28;20016;-49
2023/09/04 14:01:26;;;;;;;7.75;4.53;;;26.90;89.80;;;;;;5094194;28;20094;-48
2023/09/04 14:04:12;;;;;;;4.47;4.07;;;27.00;90.00;;;;;;5094040;28;20478;-46
2023/09/04 14:06:58;;;;;;;5.70;3.97;;;27.30;90.10;;;;;;5093843;28;20020;-50
2023/09/04 14:09:44;;;;;;;6.10;4.35;;;27.50;88.70;;;;;;5079263;28;20043;-49
2023/09/04 14:12:29;;;;;;;17.95;10.25;;;27.50;87.90;;;;;;5092760;28;20059;-54
2023/09/04 14:15:15;;;;;;;9.30;6.38;;;27.50;88.20;;;;;;5080615;28;20024;-51
2023/09/04 14:18:02;;;;;;;21.33;15.18;;;27.50;88.40;;;;;;5093406;28;20016;-51
2023/09/04 14:20:47;;;;;;;11.95;8.98;;;27.80;88.90;;;;;;5094048;28;20119;-52
2023/09/04 14:23:33;;;;;;;7.25;4.30;;;27.90;88.00;;;;;;5093362;28;20052;-53
2023/09/04 14:26:19;;;;;;;6.32;3.83;;;27.90;87.40;;;;;;5093146;28;20032;-48